Data for 06/16/2007

Time Sea-Level Adjusted Pressure Absolute Pressure Temperature Relative Humidity Dew Point   
(mb) (inHg) (mb) (inHg) (C) (F) (%) (C) (F)
00:05 1018 30.06 848 25.04 13.1 55.5 78 9.3 48.7
00:10 1018 30.06 848 25.04 13.1 55.5 78 9.3 48.8
00:15 1018 30.06 848 25.04 13 55.4 78 9.3 48.7
00:20 1018 30.06 848 25.04 13 55.4 78 9.3 48.8
00:25 1018 30.06 848 25.04 12.9 55.2 79 9.3 48.8
00:30 1019 30.09 848 25.04 12.9 55.2 79 9.3 48.7
00:35 1019 30.09 848 25.04 12.9 55.1 79 9.3 48.7
00:40 1019 30.09 848 25.04 12.8 55.1 79 9.3 48.8
00:45 1019 30.09 848 25.04 12.8 55 79 9.3 48.8
00:50 1019 30.09 848 25.04 12.7 54.9 80 9.3 48.8
00:55 1019 30.09 848 25.04 12.7 54.8 80 9.3 48.7
01:00 1019 30.09 848 25.04 12.7 54.8 80 9.3 48.8
01:05 1018 30.06 848 25.04 12.6 54.7 80 9.3 48.7
01:10 1019 30.09 848 25.04 12.6 54.7 80 9.3 48.8
01:15 1019 30.09 848 25.04 12.5 54.6 80 9.3 48.7
01:20 1019 30.09 848 25.04 12.5 54.4 81 9.3 48.7
01:25 1019 30.09 848 25.04 12.5 54.5 81 9.3 48.7
01:30 1019 30.09 848 25.04 12.5 54.5 81 9.3 48.7
01:35 1018 30.06 848 25.04 12.5 54.5 81 9.3 48.8
01:40 1018 30.06 848 25.04 12.5 54.4 81 9.3 48.7
01:45 1018 30.06 848 25.04 12.5 54.4 81 9.3 48.7
01:50 1018 30.06 848 25.04 12.4 54.3 81 9.3 48.7
01:55 1018 30.06 848 25.04 12.4 54.3 81 9.3 48.7
02:00 1018 30.06 848 25.04 12.4 54.3 81 9.3 48.7
02:05 1018 30.06 848 25.04 12.4 54.2 81 9.2 48.6
02:10 1018 30.06 848 25.04 12.4 54.2 81 9.2 48.6
02:15 1018 30.06 848 25.04 12.3 54.2 81 9.2 48.6
02:20 1018 30.06 848 25.04 12.3 54.1 81 9.2 48.6
02:25 1018 30.06 848 25.04 12.2 54 82 9.2 48.6
02:30 1018 30.06 848 25.04 12.2 54 82 9.2 48.6
02:35 1018 30.06 848 25.04 12.2 53.9 82 9.2 48.5
02:40 1018 30.06 848 25.04 12.1 53.9 82 9.2 48.6
02:45 1018 30.06 848 25.04 12.1 53.8 82 9.2 48.6
02:50 1018 30.06 847 25.01 12.1 53.7 83 9.2 48.6
02:55 1018 30.06 848 25.04 12 53.6 83 9.2 48.5
03:00 1018 30.06 847 25.01 12 53.5 83 9.2 48.6
03:05 1018 30.06 847 25.01 11.9 53.3 84 9.2 48.5
03:10 1018 30.06 847 25.01 11.9 53.4 83 9.2 48.5
03:15 1018 30.06 847 25.01 11.9 53.3 84 9.2 48.6
03:20 1018 30.06 847 25.01 11.8 53.2 84 9.2 48.5
03:25 1018 30.06 847 25.01 11.7 53.1 84 9.2 48.5
03:30 1018 30.06 847 25.01 11.7 53.1 84 9.1 48.4
03:35 1018 30.06 848 25.04 11.8 53.2 84 9.2 48.5
03:40 1018 30.06 847 25.01 11.8 53.2 84 9.1 48.4
03:45 1018 30.06 847 25.01 11.7 53.1 84 9.1 48.5
03:50 1018 30.06 847 25.01 11.7 53.1 84 9.1 48.4
03:55 1018 30.06 847 25.01 11.8 53.2 83 9.1 48.3
04:00 1018 30.06 847 25.01 11.8 53.2 83 9.1 48.4
04:05 1018 30.06 847 25.01 11.7 53.1 84 9 48.3
04:10 1018 30.06 847 25.01 11.7 53.1 84 9.1 48.4
04:15 1018 30.06 847 25.01 11.6 52.9 84 9.1 48.3
04:20 1018 30.06 847 25.01 11.6 52.9 84 9.1 48.3
04:25 1018 30.06 847 25.01 11.7 53 84 9.1 48.3
04:30 1018 30.06 847 25.01 11.6 52.8 84 9 48.3
04:35 1018 30.06 847 25.01 11.5 52.7 85 9.1 48.3
04:40 1018 30.06 847 25.01 11.4 52.6 85 9.1 48.3
04:45 1018 30.06 847 25.01 11.3 52.4 85 9 48.2
04:50 1018 30.06 847 25.01 11.3 52.4 86 9 48.2
04:55 1018 30.06 847 25.01 11.3 52.4 86 9 48.3
05:00 1018 30.06 847 25.01 11.2 52.2 86 9 48.2
05:05 1018 30.06 847 25.01 11.2 52.1 86 9 48.2
05:10 1018 30.06 847 25.01 11.2 52.2 86 9 48.2
05:15 1018 30.06 847 25.01 11.2 52.2 86 9 48.3
05:20 1018 30.06 847 25.01 11.1 52 87 9 48.2
05:25 1018 30.06 847 25.01 11.1 51.9 87 9 48.1
05:30 1018 30.06 847 25.01 11 51.9 87 9 48.1
05:35 1018 30.06 847 25.01 11 51.8 87 8.9 48.1
05:40 1018 30.06 847 25.01 11 51.8 87 8.9 48.1
05:45 1018 30.06 847 25.01 11 51.8 87 8.9 48.1
05:50 1018 30.06 847 25.01 11.1 52 86 8.9 48.1
05:55 1018 30.06 847 25.01 11.1 52 86 8.9 48.1
06:00 1018 30.06 847 25.01 11.1 52 86 8.9 48.1
06:05 1018 30.06 847 25.01 11.1 52 86 8.9 48
06:10 1018 30.06 847 25.01 11.2 52.1 86 8.8 47.9
06:15 1018 30.06 847 25.01 11.3 52.4 85 8.8 47.9
06:20 1018 30.06 847 25.01 11.4 52.5 84 8.9 48
06:25 1018 30.06 847 25.01 11.4 52.6 84 8.8 47.9
06:30 1018 30.06 847 25.01 11.6 52.8 84 8.9 48
06:35 1018 30.06 847 25.01 11.7 53.1 83 8.9 48
06:40 1018 30.06 847 25.01 11.9 53.4 82 8.9 48
06:45 1018 30.06 847 25.01 12 53.6 81 8.9 48.1
06:50 1018 30.06 847 25.01 12.1 53.8 81 8.9 48.1
06:55 1018 30.06 847 25.01 12.3 54.2 79 8.9 48
07:00 1018 30.06 847 25.01 12.4 54.4 79 8.9 48
07:05 1018 30.06 847 25.01 12.6 54.6 78 8.9 48
07:10 1018 30.06 847 25.01 12.8 55.1 77 8.9 48.1
07:15 1018 30.06 847 25.01 12.9 55.3 77 9 48.2
07:20 1018 30.06 847 25.01 13.1 55.5 76 9 48.2
07:25 1018 30.06 847 25.01 13.4 56.1 74 9 48.1
07:30 1018 30.06 847 25.01 13.6 56.5 74 9.1 48.4
07:35 1018 30.06 847 25.01 13.8 56.8 73 9.1 48.4
07:40 1018 30.06 847 25.01 13.9 57 72 9 48.3
07:45 1018 30.06 847 25.01 14.1 57.4 71 8.9 48.1
07:50 1018 30.06 847 25.01 14.2 57.5 71 9 48.3
07:55 1018 30.06 847 25.01 14.2 57.6 70 8.9 47.9
08:00 1018 30.06 847 25.01 14.3 57.7 71 9.1 48.4
08:05 1018 30.06 847 25.01 14.5 58 69 8.9 48.1
08:10 1018 30.06 847 25.01 14.5 58.1 70 9.2 48.5
08:15 1018 30.06 847 25.01 14.6 58.2 70 9.2 48.5
08:20 1018 30.06 847 25.01 14.6 58.2 70 9.2 48.6
08:25 1018 30.06 847 25.01 14.8 58.6 68 9 48.1
08:30 1018 30.06 847 25.01 14.9 58.8 67 8.9 48
08:35 1018 30.06 847 25.01 15.1 59.2 66 9 48.1
08:40 1018 30.06 847 25.01 15.2 59.4 66 9 48.1
08:45 1018 30.06 847 25.01 15.3 59.6 65 8.9 48
08:50 1018 30.06 847 25.01 15.3 59.5 65 8.8 47.9
08:55 1018 30.06 847 25.01 15.4 59.6 65 9 48.2
09:00 1018 30.06 847 25.01 15.5 59.9 65 9 48.1
09:05 1018 30.06 847 25.01 15.8 60.5 64 9.1 48.4
09:10 1018 30.06 847 25.01 15.9 60.5 64 9.1 48.3
09:15 1018 30.06 847 25.01 15.8 60.4 64 9.2 48.5
09:20 1018 30.06 847 25.01 16.2 61.1 63 9.3 48.7
09:25 1018 30.06 847 25.01 15.9 60.6 65 9.4 48.9
09:30 1018 30.06 847 25.01 16.2 61.1 64 9.3 48.8
09:35 1018 30.06 847 25.01 16.2 61.1 63 9.3 48.7
09:40 1018 30.06 847 25.01 16.5 61.6 63 9.5 49.1
09:45 1018 30.06 847 25.01 16.5 61.6 63 9.6 49.2
09:50 1017 30.03 847 25.01 16.6 61.9 62 9.4 49
09:55 1017 30.03 847 25.01 16.6 61.8 62 9.4 48.9
10:00 1017 30.03 847 25.01 16.6 61.8 63 9.6 49.4
10:05 1017 30.03 846 24.98 17 62.5 62 9.7 49.5
10:10 1017 30.03 846 24.98 16.5 61.7 64 9.8 49.7
10:15 1017 30.03 846 24.98 16.7 62 63 9.7 49.5
10:20 1017 30.03 846 24.98 17.2 63 61 9.7 49.5
10:25 1017 30.03 846 24.98 17.7 63.8 60 9.8 49.7
10:30 1017 30.03 846 24.98 17.9 64.2 59 9.8 49.7
10:35 1017 30.03 846 24.98 17.9 64.2 60 10.1 50.2
10:40 1017 30.03 846 24.98 17.9 64.2 60 10.1 50.2
10:45 1017 30.03 846 24.98 17.8 64 60 10 50.1
10:50 1017 30.03 846 24.98 18.3 64.9 58 10 50
10:55 1017 30.03 846 24.98 18.7 65.6 57 10.2 50.3
11:00 1017 30.03 846 24.98 18.6 65.4 57 10 50.1
11:05 1016 30 846 24.98 18.7 65.7 58 10.3 50.6
11:10 1016 30 846 24.98 18.9 66.1 56 10 50
11:15 1016 30 845 24.95 18.9 66 57 10.4 50.6
11:20 1016 30 845 24.95 19.1 66.4 56 10.3 50.5
11:25 1016 30 845 24.95 19.2 66.5 54 9.9 49.8
11:30 1016 30 845 24.95 19.5 67.1 53 9.9 49.8
11:35 1016 30 845 24.95 19.6 67.4 54 10.2 50.3
11:40 1016 30 845 24.95 19.8 67.7 53 10 50
11:45 1016 30 845 24.95 20.3 68.5 52 10.2 50.3
11:50 1016 30 845 24.95 20.7 69.2 50 10 50
11:55 1016 30 845 24.95 20.8 69.5 50 10.2 50.3
12:00 1015 29.97 845 24.95 21 69.8 48 9.9 49.7
12:05 1015 29.97 845 24.95 21.4 70.5 49 10.3 50.5
12:10 1015 29.97 845 24.95 21.8 71.2 48 10.4 50.8
12:15 1015 29.97 844 24.92 21.3 70.3 50 10.5 51
12:20 1015 29.97 844 24.92 21.9 71.4 49 10.8 51.5
12:25 1015 29.97 844 24.92 22.1 71.7 49 10.9 51.6
12:30 1015 29.97 844 24.92 22.1 71.8 48 10.6 51.1
12:35 1015 29.97 844 24.92 22.5 72.4 47 10.8 51.5
12:40 1015 29.97 844 24.92 22.4 72.3 45 10.1 50.1
12:45 1015 29.97 844 24.92 22.3 72.2 47 10.6 51.1
12:50 1015 29.97 844 24.92 22.5 72.5 46 10.5 51
12:55 1015 29.97 844 24.92 22.9 73.1 46 10.8 51.5
13:00 1014 29.94 844 24.92 22.9 73.2 45 10.4 50.8
13:05 1014 29.94 843 24.89 23.1 73.5 45 10.6 51
13:10 1014 29.94 843 24.89 23.3 73.9 45 10.7 51.3
13:15 1014 29.94 843 24.89 23.2 73.8 45 10.7 51.3
13:20 1014 29.94 843 24.89 23.2 73.8 45 10.8 51.4
13:25 1014 29.94 843 24.89 23 73.4 45 10.6 51.1
13:30 1014 29.94 843 24.89 22.7 72.9 46 10.8 51.4
13:35 1014 29.94 843 24.89 23 73.4 44 10.4 50.7
13:40 1013 29.91 843 24.89 23.1 73.6 46 11 51.7
13:45 1013 29.91 843 24.89 23.5 74.3 43 10.2 50.4
13:50 1013 29.91 842 24.86 23.5 74.3 44 10.8 51.5
13:55 1013 29.91 842 24.86 23.7 74.6 44 10.8 51.4
14:00 1013 29.91 842 24.86 23.6 74.5 45 11.1 51.9
14:05 1013 29.91 842 24.86 23.5 74.2 44 10.7 51.3
14:10 1013 29.91 842 24.86 23.1 73.6 46 11 51.8
14:15 1013 29.91 842 24.86 23.2 73.7 44 10.4 50.8
14:20 1012 29.88 842 24.86 22.2 72 49 11.1 51.9
14:25 1012 29.88 841 24.83 21.3 70.4 49 10.4 50.8
14:30 1012 29.88 841 24.83 20.9 69.7 50 10.3 50.6
14:35 1012 29.88 841 24.83 20.7 69.2 53 10.9 51.6
14:40 1012 29.88 841 24.83 20.4 68.8 52 10.4 50.7
14:45 1012 29.88 841 24.83 20.4 68.8 53 10.8 51.4
14:50 1012 29.88 841 24.83 20.4 68.8 54 10.9 51.5
14:55 1012 29.88 842 24.86 20.2 68.4 55 11 51.8
15:00 1013 29.91 842 24.86 20 68 57 11.4 52.5
15:05 1013 29.91 842 24.86 19.8 67.6 60 12 53.6
15:10 1013 29.91 842 24.86 19.3 66.8 63 12.1 53.8
15:15 1012 29.88 841 24.83 19.2 66.6 63 12 53.6
15:20 1012 29.88 841 24.83 19.3 66.8 62 12 53.6
15:25 1012 29.88 841 24.83 19.3 66.8 62 11.9 53.5
15:30 1012 29.88 841 24.83 19.4 66.8 62 12.1 53.7
15:35 1012 29.88 841 24.83 19.3 66.8 63 12.2 54
15:40 1012 29.88 841 24.83 19.2 66.5 64 12.4 54.3
15:45 1012 29.88 841 24.83 19.1 66.3 64 12.2 53.9
15:50 1012 29.88 841 24.83 19.1 66.3 63 12 53.7
15:55 1012 29.88 841 24.83 19.2 66.5 63 12.2 53.9
16:00 1012 29.88 841 24.83 19.9 67.8 61 12.2 54
16:05 1012 29.88 841 24.83 20.5 68.9 58 12.1 53.7
16:10 1012 29.88 841 24.83 20.3 68.6 58 12 53.6
16:15 1011 29.85 841 24.83 20.5 68.9 55 11.4 52.5
16:20 1011 29.85 841 24.83 20.5 68.8 56 11.4 52.6
16:25 1011 29.85 841 24.83 20.2 68.4 56 11.2 52.2
16:30 1011 29.85 840 24.81 20.5 68.8 54 11.1 52
16:35 1011 29.85 840 24.81 21 69.9 57 12.2 54
16:40 1011 29.85 840 24.81 20.7 69.2 58 12.2 54
16:45 1011 29.85 840 24.81 20.7 69.3 55 11.5 52.7
16:50 1011 29.85 840 24.81 20.9 69.7 53 11.1 51.9
16:55 1010 29.83 840 24.81 21.2 70.2 55 12 53.6
17:00 1010 29.83 839 24.78 21.3 70.4 54 11.6 53
17:05 1010 29.83 839 24.78 20.9 69.6 53 11.2 52.2
17:10 1010 29.83 839 24.78 20.7 69.3 53 11 51.8
17:15 1010 29.83 839 24.78 20.6 69 53 10.9 51.6
17:20 1010 29.83 839 24.78 20.5 68.8 56 11.4 52.6
17:25 1010 29.83 839 24.78 20.4 68.7 52 10.5 50.9
17:30 1010 29.83 839 24.78 20.2 68.4 54 10.8 51.4
17:35 1010 29.83 839 24.78 20.5 68.8 54 11 51.8
17:40 1010 29.83 839 24.78 20.5 68.8 56 11.5 52.8
17:45 1010 29.83 839 24.78 20.3 68.5 58 11.7 53.1
17:50 1009 29.8 839 24.78 20.2 68.3 58 11.8 53.3
17:55 1009 29.8 838 24.75 20.1 68.1 58 11.6 52.9
18:00 1009 29.8 838 24.75 20.1 68.1 57 11.4 52.5
18:05 1009 29.8 838 24.75 20.1 68.2 56 11.3 52.3
18:10 1009 29.8 838 24.75 20.2 68.4 57 11.5 52.7
18:15 1009 29.8 838 24.75 20.1 68.2 57 11.5 52.8
18:20 1009 29.8 839 24.78 20.1 68.2 57 11.4 52.6
18:25 1009 29.8 839 24.78 20.3 68.6 57 11.7 53.1
18:30 1009 29.8 838 24.75 20.4 68.8 56 11.5 52.8
18:35 1009 29.8 838 24.75 20.4 68.7 57 11.6 53
18:40 1009 29.8 838 24.75 20.2 68.4 59 12 53.5
18:45 1009 29.8 838 24.75 20.2 68.3 58 11.8 53.2
18:50 1009 29.8 838 24.75 20.2 68.4 59 12 53.6
18:55 1009 29.8 838 24.75 20.1 68.2 60 12.3 54.1
19:00 1009 29.8 838 24.75 20 68 61 12.4 54.4
19:05 1009 29.8 838 24.75 19.9 67.8 63 12.6 54.8
19:10 1009 29.8 838 24.75 19.9 67.9 62 12.6 54.8
19:15 1009 29.8 838 24.75 20 68 62 12.6 54.7
19:20 1009 29.8 838 24.75 19.9 67.8 63 12.8 55.1
19:25 1009 29.8 838 24.75 19.7 67.5 63 12.7 54.8
19:30 1008 29.77 838 24.75 19.6 67.3 64 12.7 54.8
19:35 1008 29.77 838 24.75 19.5 67.2 64 12.7 54.9
19:40 1008 29.77 838 24.75 19.5 67 64 12.6 54.7
19:45 1008 29.77 837 24.72 19.5 67.1 64 12.6 54.6
19:50 1008 29.77 837 24.72 19.4 66.9 65 12.6 54.8
19:55 1008 29.77 837 24.72 19.3 66.8 65 12.7 54.8
20:00 1008 29.77 838 24.75 19.3 66.7 65 12.6 54.8
20:05 1008 29.77 838 24.75 19.2 66.6 65 12.6 54.7
20:10 1009 29.8 838 24.75 19.3 66.7 65 12.6 54.7
20:15 1009 29.8 838 24.75 19.5 67.2 55 10.3 50.5
20:20 1009 29.8 838 24.75 20.8 69.4 47 9.2 48.5
20:25 1009 29.8 838 24.75 21.1 70 48 9.9 49.9
20:30 1009 29.8 839 24.78 21 69.9 51 10.6 51.1
20:35 1010 29.83 839 24.78 21 69.8 51 10.6 51.1
20:40 1010 29.83 839 24.78 20.8 69.5 51 10.4 50.8
20:45 1010 29.83 839 24.78 20.6 69.1 51 10.3 50.6
20:50 1010 29.83 839 24.78 20.4 68.8 52 10.3 50.5
20:55 1010 29.83 839 24.78 20.3 68.5 52 10.1 50.1
21:00 1010 29.83 840 24.81 20 68 54 10.4 50.7
21:05 1011 29.85 840 24.81 19.5 67 56 10.5 50.9
21:10 1011 29.85 840 24.81 19 66.1 61 11.3 52.3
21:15 1011 29.85 840 24.81 18.5 65.2 62 11.1 52
21:20 1011 29.85 840 24.81 18.2 64.8 61 10.7 51.2
21:25 1011 29.85 840 24.81 17.9 64.3 60 10.1 50.2
21:30 1011 29.85 841 24.83 17.9 64.2 59 9.8 49.6
21:35 1011 29.85 841 24.83 17.8 64.1 61 10.3 50.6
21:40 1011 29.85 841 24.83 17.1 62.7 65 10.5 50.9
21:45 1011 29.85 841 24.83 16.7 62 65 10.2 50.3
21:50 1012 29.88 841 24.83 16.5 61.8 66 10.2 50.3
21:55 1012 29.88 841 24.83 16.1 61 68 10.2 50.3
22:00 1012 29.88 841 24.83 16 60.9 68 10.1 50.2
22:05 1012 29.88 841 24.83 16 60.8 67 9.9 49.9
22:10 1012 29.88 841 24.83 15.9 60.7 69 10.4 50.7
22:15 1012 29.88 841 24.83 15.5 59.8 71 10.2 50.4
22:20 1012 29.88 841 24.83 15.3 59.5 71 10.1 50.2
22:25 1012 29.88 841 24.83 15.3 59.6 71 10.1 50.2
22:30 1012 29.88 841 24.83 15.3 59.5 70 9.8 49.7
22:35 1012 29.88 841 24.83 15.5 59.9 69 9.9 49.8
22:40 1012 29.88 841 24.83 15.6 60 69 10 50
22:45 1012 29.88 841 24.83 15.4 59.6 70 10 50
22:50 1012 29.88 841 24.83 15.2 59.4 70 9.8 49.7
22:55 1012 29.88 841 24.83 15.2 59.4 70 9.8 49.6
23:00 1012 29.88 841 24.83 15.1 59.2 71 9.9 49.8
23:05 1012 29.88 841 24.83 15.1 59.1 71 10 49.9
23:10 1012 29.88 841 24.83 15 58.9 72 10.1 50.2
23:15 1012 29.88 841 24.83 14.8 58.6 74 10.2 50.3
23:20 1012 29.88 841 24.83 14.6 58.3 75 10.3 50.6
23:25 1012 29.88 841 24.83 14.6 58.3 75 10.3 50.5
23:30 1012 29.88 841 24.83 14.7 58.5 76 10.5 51
23:35 1012 29.88 841 24.83 14.6 58.3 78 10.8 51.4
23:40 1012 29.88 841 24.83 14.5 58 79 10.9 51.6
23:45 1012 29.88 841 24.83 14.4 57.9 80 11 51.8
23:50 1012 29.88 841 24.83 14.3 57.7 80 10.8 51.5
23:55 1013 29.91 842 24.86 14.3 57.8 79 10.7 51.2
24:00 1013 29.91 842 24.86 14.5 58 78 10.6 51.2